Aérodrome :
LOGIN :

S'inscrire | Disclaimer

   EN    FR    IT 

 










Légende :    VFR   VFR Marginal   IFR   IFR Intensif   IFR Très Intensif
Visi : 
Plafond : 
>= 8 km
>= 3000ft
5 à 8 km
1000 à 3000 ft
1500m à 5 km
500 à 1000 ft
800 à 1500m
200 à 500 ft
< 800m
< 200 ft
Symboles :   Orages  Brouillard  Fortes neiges  Fortes précipitations  Vent > 20 kt
SIGMETs :   Divers  Orages  Givrage  Turbulence  Onde Orograph.  Cendres Volcan.







- Altitude de l'aérodrome : 1455 ft


ETIH - Hohenfels Army Air Field

DERNIER METAR :
  • 172302Z AUTO 00000KT 9000 BR SCT011 M01/M02 A3020 RMK AO2 SLP256 $

METARs EXPIRÉS :
  • 172228Z AUTO 35003KT 5000 -SN BR OVC012 M01/M01 A3018 RMK AO2 CIG 012V018 SLP249 $
  • 172221Z AUTO 00000KT 5000 -SN BR OVC018 M01/M01 A3018 RMK AO2 SLP249 $
  • 172200Z AUTO 00000KT 4400 -SN BR OVC018 M01/M01 A3017 RMK AO2 SLP245 $
  • 172156Z AUTO 35003KT 5000 -SN BR OVC018 M01/M01 A3017 RMK AO2 SLP245 P0001 T10121013 $
  • 172143Z AUTO 00000KT 4400 -SN BR OVC018 M01/M01 A3017 RMK AO2 SLP245 $
  • 172116Z AUTO 35003KT 5000 -SN BR OVC016 M01/M01 A3016 RMK AO2 CIG 011V016 SLP242 $
  • 172056Z AUTO 00000KT 3600 -SN BR OVC013 M01/M01 A3015 RMK AO2 SLP239 P0001 60004 T10111012 52018 $
  • 172040Z AUTO 00000KT 4400 -SN BR FEW009 OVC013 M01/M01 A3015 RMK AO2 SLP239 $
  • 172029Z AUTO 36003KT 4400 -SN BR FEW009 OVC016 M01/M01 A3014 RMK AO2 SLP235 $
  • 172008Z AUTO 34003KT 5000 -SN BR FEW008 OVC015 M01/M01 A3013 RMK AO2 CIG 008V015 SLP232 $

Prévision TAF périmée.
Pas de NOTAMs connus pour ce terrain.



MET'MAP, la Météo Aéronautique d'un coup d'oeil ! - Copyright ORBIFLY Décembre 2007 - Disclaimer

ORBIFLY MET'MAP TEAM :

Programmation & Développement : Alexandra Zaïnal
Conception & Développement : Baudouin d'Aumeries
Co-Programmation & Développement : Marc-Olivier Méhu
Soutien technique & logistique : Manuel Goepfert

Contact : metmap@orbifly.com




SOURCES & CREDITS :

   NOAA